Time;durP1;ratioP1;P1;durP2;ratioP2;P2;SDS_P1;SDS_P2;PMS_P1;PMS_P2;Temp;Humidity;BMP_temperature;BMP_pressure;BME280_temperature;BME280_humidity;BME280_pressure;Samples;Min_cycle;Max_cycle;Signal;HPM_P1;HPM_P2
2021/12/09 00:00:07;;;;;;;5.32;2.80;;;21.90;49.60;;;;;;5208325;28;20045;-83
2021/12/09 00:02:44;;;;;;;6.97;3.20;;;21.90;49.50;;;;;;5194982;28;20044;-84
2021/12/09 00:05:17;;;;;;;8.18;3.08;;;21.90;49.50;;;;;;5200867;28;20503;-84
2021/12/09 00:07:52;;;;;;;4.40;3.10;;;21.90;49.50;;;;;;5204885;28;20158;-84
2021/12/09 00:10:25;;;;;;;5.45;2.90;;;21.90;49.50;;;;;;5187151;28;20041;-84
2021/12/09 00:12:58;;;;;;;4.73;2.43;;;21.90;49.40;;;;;;5204602;28;20053;-85
2021/12/09 00:15:30;;;;;;;5.30;3.03;;;21.90;50.00;;;;;;5204874;28;20272;-84
2021/12/09 00:18:03;;;;;;;5.25;2.72;;;21.90;49.40;;;;;;5188922;28;20049;-85
2021/12/09 00:20:36;;;;;;;5.22;2.63;;;21.80;49.30;;;;;;5201385;28;20041;-83
2021/12/09 00:23:08;;;;;;;6.13;2.80;;;21.80;49.30;;;;;;5170248;28;20326;-86
2021/12/09 00:25:41;;;;;;;4.55;2.95;;;21.80;49.40;;;;;;5210323;28;20291;-84
2021/12/09 00:28:14;;;;;;;3.87;2.90;;;21.80;49.30;;;;;;5192097;28;20055;-84
2021/12/09 00:30:46;;;;;;;3.90;2.60;;;21.90;49.30;;;;;;5187039;28;20219;-84
2021/12/09 00:33:19;;;;;;;4.32;2.80;;;21.90;49.30;;;;;;5175940;28;20511;-84
2021/12/09 00:35:57;;;;;;;4.95;2.53;;;21.80;49.40;;;;;;5212314;28;20490;-84
2021/12/09 00:38:39;;;;;;;9.07;3.08;;;21.80;49.30;;;;;;5207869;28;20052;-85
2021/12/09 00:41:14;;;;;;;5.05;2.80;;;21.80;49.40;;;;;;5200389;28;20433;-84
2021/12/09 00:43:47;;;;;;;3.10;2.65;;;21.80;49.40;;;;;;5208429;28;20486;-84
2021/12/09 00:46:19;;;;;;;4.18;2.50;;;21.80;49.50;;;;;;5207293;28;20045;-84
2021/12/09 00:48:52;;;;;;;4.10;2.35;;;21.80;49.50;;;;;;5192877;28;20306;-85
2021/12/09 00:51:25;;;;;;;3.95;2.58;;;21.80;49.60;;;;;;5207952;28;20064;-84
2021/12/09 00:53:58;;;;;;;12.05;2.67;;;21.80;49.50;;;;;;5207335;28;20052;-84
2021/12/09 00:56:30;;;;;;;6.40;2.65;;;21.80;49.50;;;;;;5203768;28;20048;-85
2021/12/09 00:59:03;;;;;;;4.47;3.00;;;21.80;49.50;;;;;;5205974;28;20053;-85
2021/12/09 01:01:35;;;;;;;3.63;2.70;;;21.80;49.50;;;;;;5196459;28;20443;-84
2021/12/09 01:04:08;;;;;;;4.18;2.70;;;21.80;49.50;;;;;;5206963;28;20048;-85
2021/12/09 01:06:41;;;;;;;;;;;21.80;49.50;;;;;;5204634;28;20056;-84
2021/12/09 01:09:14;;;;;;;5.47;2.60;;;21.80;49.50;;;;;;5205322;28;19939;-83
2021/12/09 01:11:46;;;;;;;2.83;2.10;;;21.80;49.50;;;;;;5213218;28;20048;-85
2021/12/09 01:14:19;;;;;;;3.95;2.38;;;21.80;49.50;;;;;;5206759;28;20053;-85
2021/12/09 01:16:51;;;;;;;3.75;2.60;;;21.80;49.40;;;;;;5198891;28;20045;-85
2021/12/09 01:19:26;;;;;;;3.10;2.28;;;21.80;49.40;;;;;;5200926;28;20049;-84
2021/12/09 01:22:01;;;;;;;4.13;2.65;;;21.80;49.40;;;;;;5200784;28;20048;-84
2021/12/09 01:24:34;;;;;;;5.22;2.67;;;21.80;50.10;;;;;;5207491;28;20052;-84
2021/12/09 01:27:06;;;;;;;2.80;2.27;;;21.80;49.40;;;;;;5182720;28;20485;-84
2021/12/09 01:29:42;;;;;;;4.25;2.17;;;21.80;49.60;;;;;;5208604;28;20048;-84
2021/12/09 01:32:14;;;;;;;2.97;2.10;;;21.80;49.30;;;;;;5195853;28;21078;-84
2021/12/09 01:34:47;;;;;;;7.53;2.50;;;21.80;49.30;;;;;;5200588;28;20048;-86
2021/12/09 01:37:20;;;;;;;6.25;2.40;;;21.80;49.40;;;;;;5200567;28;20060;-85
2021/12/09 01:39:52;;;;;;;6.28;2.30;;;21.80;49.40;;;;;;5198360;28;20056;-85
2021/12/09 01:42:25;;;;;;;3.10;2.30;;;21.80;50.20;;;;;;5201830;28;20521;-84
2021/12/09 01:44:57;;;;;;;3.15;2.05;;;21.80;49.40;;;;;;5169497;28;20033;-86
2021/12/09 01:47:30;;;;;;;3.35;2.33;;;21.80;49.50;;;;;;5197186;28;20493;-84
2021/12/09 01:50:03;;;;;;;3.60;2.00;;;21.80;49.50;;;;;;5196456;28;20418;-85
2021/12/09 01:52:37;;;;;;;3.63;2.60;;;21.80;49.50;;;;;;5197586;28;20319;-85
2021/12/09 01:55:12;;;;;;;3.20;1.77;;;21.80;49.50;;;;;;5183659;28;20060;-84
2021/12/09 01:57:51;;;;;;;3.67;2.30;;;21.80;49.40;;;;;;5182660;28;20045;-84
2021/12/09 02:00:27;;;;;;;2.67;1.90;;;21.80;49.40;;;;;;5200216;28;20049;-85
2021/12/09 02:02:59;;;;;;;2.17;1.80;;;21.80;49.40;;;;;;5200735;28;20573;-85
2021/12/09 02:05:33;;;;;;;3.37;1.87;;;21.80;49.40;;;;;;5199499;28;20495;-85
2021/12/09 02:08:06;;;;;;;;;;;21.80;49.40;;;;;;5194181;28;20049;-85
2021/12/09 02:10:39;;;;;;;3.63;1.92;;;21.70;49.40;;;;;;5178566;28;19948;-84
2021/12/09 02:13:13;;;;;;;3.35;1.70;;;21.70;49.40;;;;;;5200936;28;20052;-84
2021/12/09 02:15:46;;;;;;;3.30;1.80;;;21.80;49.50;;;;;;5197908;28;20049;-84
2021/12/09 02:18:21;;;;;;;;;;;21.80;49.50;;;;;;5163346;28;20426;-85
2021/12/09 02:21:24;;;;;;;1.92;1.60;;;21.70;49.50;;;;;;5175547;28;19935;-84
2021/12/09 02:24:01;;;;;;;4.17;1.90;;;21.70;49.50;;;;;;5161849;28;20044;-85
2021/12/09 02:26:40;;;;;;;1.77;1.63;;;21.70;49.50;;;;;;5188101;28;20720;-85
2021/12/09 02:29:14;;;;;;;4.93;1.95;;;21.70;49.50;;;;;;5199001;28;20525;-84
2021/12/09 02:31:47;;;;;;;3.33;1.98;;;21.70;49.50;;;;;;5196645;28;20045;-85
2021/12/09 02:34:19;;;;;;;3.03;1.83;;;21.70;49.50;;;;;;5200262;28;20056;-85
2021/12/09 02:36:51;;;;;;;2.70;2.03;;;21.70;49.50;;;;;;5197913;28;20053;-84
2021/12/09 02:39:24;;;;;;;5.03;1.90;;;21.70;49.50;;;;;;5206962;28;20033;-85
2021/12/09 02:41:57;;;;;;;3.88;1.40;;;21.70;49.50;;;;;;5205815;28;20049;-84
2021/12/09 02:44:29;;;;;;;1.67;1.50;;;21.70;49.40;;;;;;5180522;28;20063;-84
2021/12/09 02:47:03;;;;;;;3.88;1.50;;;21.70;49.50;;;;;;5164091;28;20366;-85
2021/12/09 02:49:35;;;;;;;2.30;1.48;;;21.80;49.60;;;;;;5166038;28;20302;-84
2021/12/09 02:52:08;;;;;;;4.72;2.08;;;21.70;49.50;;;;;;5198849;28;20079;-84
2021/12/09 02:54:40;;;;;;;4.47;1.80;;;21.70;49.50;;;;;;5204674;28;20049;-84
2021/12/09 02:57:13;;;;;;;1.80;1.40;;;21.70;49.50;;;;;;5202014;28;20303;-84
2021/12/09 02:59:45;;;;;;;2.13;1.55;;;21.70;49.40;;;;;;5183883;28;20045;-84
2021/12/09 03:02:19;;;;;;;2.20;1.50;;;21.70;49.30;;;;;;5201344;28;20548;-84
2021/12/09 03:04:58;;;;;;;3.10;1.60;;;21.70;49.30;;;;;;5199129;28;20302;-83
2021/12/09 03:07:35;;;;;;;2.20;1.50;;;21.70;49.30;;;;;;5184075;28;20059;-83
2021/12/09 03:10:17;;;;;;;3.03;1.17;;;21.70;49.30;;;;;;5186140;28;20055;-84
2021/12/09 03:12:55;;;;;;;2.83;1.67;;;21.70;49.20;;;;;;5208833;28;20047;-84
2021/12/09 03:15:27;;;;;;;2.63;1.40;;;21.70;49.30;;;;;;5204556;28;20056;-83
2021/12/09 03:18:00;;;;;;;2.58;1.60;;;21.70;49.30;;;;;;5184877;28;20060;-83
2021/12/09 03:20:32;;;;;;;2.75;2.03;;;21.70;49.20;;;;;;5202444;28;20427;-83
2021/12/09 03:23:05;;;;;;;3.08;1.30;;;21.70;49.20;;;;;;5205908;28;20045;-83
2021/12/09 03:25:37;;;;;;;2.22;1.30;;;21.70;49.20;;;;;;5184168;28;20045;-83
2021/12/09 03:28:12;;;;;;;3.35;1.35;;;21.70;49.20;;;;;;5198297;28;20049;-83
2021/12/09 03:30:45;;;;;;;1.50;1.15;;;21.70;49.20;;;;;;5207391;28;20045;-83
2021/12/09 03:33:17;;;;;;;1.35;1.08;;;21.70;49.20;;;;;;5200175;28;20040;-83
2021/12/09 03:36:03;;;;;;;4.53;1.42;;;21.70;49.20;;;;;;5196196;28;20072;-83
2021/12/09 03:38:36;;;;;;;2.13;1.50;;;21.70;49.80;;;;;;5206188;28;20510;-83
2021/12/09 03:41:09;;;;;;;2.33;1.30;;;21.70;49.20;;;;;;5199090;28;20319;-83
2021/12/09 03:43:42;;;;;;;2.90;1.20;;;21.70;49.20;;;;;;5204929;28;20044;-83
2021/12/09 03:46:15;;;;;;;2.00;1.20;;;21.70;49.20;;;;;;5194854;28;20052;-83
2021/12/09 03:48:48;;;;;;;1.42;1.23;;;21.70;49.20;;;;;;5200812;28;20057;-83
2021/12/09 03:51:21;;;;;;;1.17;0.95;;;21.70;49.10;;;;;;5196955;28;20049;-84
2021/12/09 03:53:53;;;;;;;8.63;1.52;;;21.70;49.10;;;;;;5198141;28;20502;-83
2021/12/09 03:56:26;;;;;;;1.55;1.20;;;21.70;49.10;;;;;;5176418;28;20057;-83
2021/12/09 03:58:58;;;;;;;1.73;1.48;;;21.70;49.10;;;;;;5199615;28;20048;-82
2021/12/09 04:01:33;;;;;;;0.93;0.85;;;21.70;49.10;;;;;;5199990;28;20273;-82
2021/12/09 04:04:07;;;;;;;5.75;0.98;;;21.70;49.10;;;;;;5199633;28;20049;-83
2021/12/09 04:06:40;;;;;;;2.00;1.10;;;21.70;49.20;;;;;;5176227;28;20044;-82
2021/12/09 04:09:16;;;;;;;1.52;0.98;;;21.70;49.10;;;;;;5199443;28;20046;-82
2021/12/09 04:11:50;;;;;;;1.25;1.10;;;21.70;49.10;;;;;;5194019;28;20463;-83
2021/12/09 04:14:22;;;;;;;3.60;0.93;;;21.70;49.10;;;;;;5198188;28;20052;-82
2021/12/09 04:16:56;;;;;;;3.08;1.23;;;21.70;49.10;;;;;;5197813;28;20071;-82
2021/12/09 04:19:29;;;;;;;6.63;1.35;;;21.70;49.10;;;;;;5200954;28;20041;-82
2021/12/09 04:22:01;;;;;;;6.63;1.50;;;21.70;49.10;;;;;;5199643;28;20044;-81
2021/12/09 04:24:34;;;;;;;1.87;1.10;;;21.70;49.20;;;;;;5196927;28;20041;-81
2021/12/09 04:27:06;;;;;;;4.10;1.00;;;21.70;49.10;;;;;;5202004;28;20056;-81
2021/12/09 04:29:39;;;;;;;1.75;1.10;;;21.70;49.10;;;;;;5185404;28;20045;-82
2021/12/09 04:32:11;;;;;;;3.30;1.20;;;21.70;49.10;;;;;;5178084;28;20548;-82
2021/12/09 04:34:44;;;;;;;1.02;0.90;;;21.70;49.40;;;;;;5193528;28;20414;-82
2021/12/09 04:37:18;;;;;;;2.08;1.10;;;21.60;49.00;;;;;;5204994;28;20037;-81
2021/12/09 04:39:51;;;;;;;2.85;1.00;;;21.70;49.00;;;;;;5181650;28;20477;-82
2021/12/09 04:42:23;;;;;;;1.48;0.93;;;21.60;49.00;;;;;;5199617;28;20064;-83
2021/12/09 04:44:56;;;;;;;1.38;0.80;;;21.60;49.10;;;;;;5199593;28;20060;-83
2021/12/09 04:47:29;;;;;;;1.00;0.73;;;21.60;49.20;;;;;;5171132;28;20045;-81
2021/12/09 04:50:05;;;;;;;3.97;1.07;;;21.60;49.90;;;;;;5168130;28;20446;-83
2021/12/09 04:52:38;;;;;;;3.40;0.95;;;21.60;49.30;;;;;;5169362;28;20048;-82
2021/12/09 04:55:11;;;;;;;1.85;0.80;;;21.60;49.30;;;;;;5160996;28;20052;-83
2021/12/09 04:57:44;;;;;;;1.05;0.88;;;21.60;49.40;;;;;;5178500;28;20088;-82
2021/12/09 05:00:20;;;;;;;2.88;1.25;;;21.60;49.50;;;;;;5194026;28;20620;-83
2021/12/09 05:03:05;;;;;;;1.63;0.95;;;21.60;49.60;;;;;;5177657;28;20045;-83
2021/12/09 05:05:42;;;;;;;2.35;1.00;;;21.60;49.60;;;;;;5174057;28;20049;-83
2021/12/09 05:08:16;;;;;;;1.08;0.80;;;21.60;49.70;;;;;;5160908;28;20040;-82
2021/12/09 05:13:36;;;;;;;4.47;1.30;;;21.60;49.80;;;;;;5200703;28;20037;-83
2021/12/09 05:16:11;;;;;;;1.70;1.15;;;21.60;49.90;;;;;;5181563;28;20530;-82
2021/12/09 05:18:44;;;;;;;4.78;1.17;;;21.60;49.90;;;;;;5195611;28;20045;-82
2021/12/09 05:21:17;;;;;;;;;;;21.60;50.00;;;;;;5181584;28;20040;-81
2021/12/09 05:23:50;;;;;;;3.88;0.95;;;21.50;50.10;;;;;;5200317;28;20280;-82
2021/12/09 05:26:28;;;;;;;6.53;1.30;;;21.60;50.20;;;;;;5191729;28;20049;-82
2021/12/09 05:29:00;;;;;;;1.60;0.90;;;21.60;50.20;;;;;;5177148;28;20056;-81
2021/12/09 05:34:25;;;;;;;3.60;1.27;;;21.60;50.30;;;;;;5159833;28;20056;-81
2021/12/09 05:37:00;;;;;;;5.32;1.13;;;21.60;50.40;;;;;;5179584;28;20060;-82
2021/12/09 05:39:33;;;;;;;3.17;1.10;;;21.60;50.40;;;;;;5165763;28;20510;-82
2021/12/09 05:42:08;;;;;;;3.85;1.05;;;21.70;50.50;;;;;;5182762;28;20103;-82
2021/12/09 05:44:42;;;;;;;6.05;1.33;;;21.70;50.40;;;;;;5191254;28;20052;-82
2021/12/09 05:47:15;;;;;;;5.28;1.67;;;21.70;50.40;;;;;;5184257;28;20041;-82
2021/12/09 05:49:49;;;;;;;8.10;1.27;;;21.70;50.30;;;;;;5181185;28;20054;-82
2021/12/09 05:52:21;;;;;;;6.22;1.60;;;21.80;50.40;;;;;;5191347;28;20048;-81
2021/12/09 05:54:54;;;;;;;4.72;1.40;;;21.80;50.40;;;;;;5189565;28;20045;-81
2021/12/09 05:57:26;;;;;;;2.92;1.27;;;21.80;50.40;;;;;;5163621;28;20072;-84
2021/12/09 06:00:00;;;;;;;10.55;1.70;;;21.80;50.40;;;;;;5182306;28;20366;-82
2021/12/09 06:02:35;;;;;;;8.30;1.88;;;21.80;50.60;;;;;;5160768;28;20450;-82
2021/12/09 06:05:07;;;;;;;13.07;1.77;;;21.80;50.60;;;;;;5163624;28;20079;-82
2021/12/09 06:07:40;;;;;;;20.00;2.22;;;21.80;50.50;;;;;;5165415;28;20305;-83
2021/12/09 06:10:12;;;;;;;13.25;1.98;;;21.80;50.80;;;;;;5175668;28;20049;-83
2021/12/09 06:12:45;;;;;;;12.93;2.03;;;21.90;50.80;;;;;;5173302;28;20339;-82
2021/12/09 06:15:17;;;;;;;13.90;1.98;;;21.90;50.70;;;;;;5171387;28;20060;-82
2021/12/09 06:17:50;;;;;;;12.65;2.08;;;21.90;50.60;;;;;;5164055;28;20303;-83
2021/12/09 06:20:25;;;;;;;7.97;1.30;;;21.90;50.50;;;;;;5160763;28;20074;-83
2021/12/09 06:22:57;;;;;;;10.60;1.77;;;21.90;50.30;;;;;;5147139;28;20049;-83
2021/12/09 06:25:31;;;;;;;13.45;1.55;;;21.90;50.30;;;;;;5169318;28;20049;-83
2021/12/09 06:28:04;;;;;;;9.10;1.40;;;22.00;50.30;;;;;;5173220;28;20514;-83
2021/12/09 06:30:36;;;;;;;13.47;1.77;;;21.90;50.20;;;;;;5175717;28;20048;-82
2021/12/09 06:33:09;;;;;;;8.25;1.60;;;21.90;50.30;;;;;;5159290;28;20084;-82
2021/12/09 06:35:41;;;;;;;11.47;1.80;;;22.00;50.30;;;;;;5172902;28;20662;-81
2021/12/09 06:38:16;;;;;;;11.27;1.92;;;22.00;50.30;;;;;;5172277;28;26753;-82
2021/12/09 06:40:49;;;;;;;8.38;1.90;;;22.00;50.40;;;;;;5175093;28;20041;-82
2021/12/09 06:43:22;;;;;;;6.28;1.80;;;22.00;50.30;;;;;;5174357;28;20049;-82
2021/12/09 06:45:56;;;;;;;9.88;1.83;;;22.00;50.30;;;;;;5194120;28;20668;-82
2021/12/09 06:48:29;;;;;;;7.85;1.60;;;22.00;50.30;;;;;;5194781;28;20922;-82
2021/12/09 06:51:02;;;;;;;5.72;1.80;;;22.00;50.10;;;;;;5171940;28;20045;-82
2021/12/09 06:53:36;;;;;;;6.10;1.73;;;22.00;50.00;;;;;;5195718;28;20048;-81
2021/12/09 06:56:09;;;;;;;7.10;1.90;;;22.00;49.90;;;;;;5189348;28;20053;-81
2021/12/09 06:58:41;;;;;;;8.07;1.63;;;22.00;50.00;;;;;;5193153;28;20052;-81
2021/12/09 07:01:15;;;;;;;6.03;1.40;;;22.00;49.80;;;;;;5183685;28;20334;-81
2021/12/09 07:03:50;;;;;;;6.30;1.73;;;22.00;49.80;;;;;;5190122;28;20401;-81
2021/12/09 07:06:23;;;;;;;4.78;1.30;;;22.00;49.80;;;;;;5199241;28;20829;-81
2021/12/09 07:09:00;;;;;;;7.68;1.70;;;22.00;49.70;;;;;;5205781;28;20052;-81
2021/12/09 07:11:33;;;;;;;5.10;1.33;;;22.00;49.70;;;;;;5207887;28;20068;-81
2021/12/09 07:14:05;;;;;;;3.95;1.80;;;22.00;49.70;;;;;;5205030;28;20087;-81
2021/12/09 07:16:38;;;;;;;7.07;1.63;;;22.00;49.60;;;;;;5209437;28;20053;-81
2021/12/09 07:19:10;;;;;;;5.43;2.08;;;22.00;49.60;;;;;;5212366;28;20312;-81
2021/12/09 07:21:43;;;;;;;10.68;3.47;;;22.00;49.60;;;;;;5205322;28;20278;-81
2021/12/09 07:24:20;;;;;;;8.63;2.10;;;22.00;49.60;;;;;;5212557;28;20487;-81
2021/12/09 07:26:53;;;;;;;11.55;2.03;;;22.10;49.60;;;;;;5212962;28;20064;-81
2021/12/09 07:29:25;;;;;;;9.65;1.77;;;22.00;49.50;;;;;;5212367;28;20048;-81
2021/12/09 07:31:58;;;;;;;7.83;1.90;;;22.00;49.50;;;;;;5216174;28;20505;-81
2021/12/09 07:34:30;;;;;;;6.47;1.60;;;22.00;49.50;;;;;;5213310;28;20481;-81
2021/12/09 07:37:05;;;;;;;5.47;1.90;;;22.00;49.40;;;;;;5215320;28;20067;-81
2021/12/09 07:39:37;;;;;;;5.32;1.70;;;22.00;49.40;;;;;;5197648;28;20041;-80
2021/12/09 07:42:11;;;;;;;6.13;1.40;;;22.10;49.40;;;;;;5206003;28;20403;-81
2021/12/09 07:44:44;;;;;;;7.50;2.00;;;22.10;49.40;;;;;;5210567;28;20427;-81
2021/12/09 07:47:17;;;;;;;6.18;1.63;;;22.10;49.30;;;;;;5202914;28;20040;-81
2021/12/09 07:49:50;;;;;;;6.50;1.75;;;22.10;49.30;;;;;;5178292;28;20045;-81
2021/12/09 07:52:23;;;;;;;5.32;1.50;;;22.10;49.30;;;;;;5195166;28;20505;-80
2021/12/09 07:54:55;;;;;;;8.00;2.20;;;22.10;49.30;;;;;;5211057;28;20056;-80
2021/12/09 07:57:28;;;;;;;6.82;1.55;;;22.10;49.20;;;;;;5208510;28;20052;-81
2021/12/09 08:00:02;;;;;;;4.25;1.52;;;22.10;49.20;;;;;;5210633;28;20052;-81
2021/12/09 08:02:45;;;;;;;5.65;1.70;;;22.10;49.80;;;;;;5208321;28;20033;-81
2021/12/09 08:05:19;;;;;;;6.25;1.92;;;22.10;49.20;;;;;;5190442;28;20060;-81
2021/12/09 08:07:52;;;;;;;7.82;1.70;;;22.10;49.20;;;;;;5205797;28;20056;-80
2021/12/09 08:10:24;;;;;;;7.82;1.23;;;22.10;49.10;;;;;;5215603;28;20056;-80
2021/12/09 08:12:58;;;;;;;5.47;1.52;;;22.10;49.10;;;;;;5205198;28;20052;-81
2021/12/09 08:15:34;;;;;;;3.90;1.30;;;22.10;49.20;;;;;;5189267;28;20057;-81
2021/12/09 08:20:55;;;;;;;3.97;1.30;;;22.10;49.10;;;;;;5196578;28;20064;-81
2021/12/09 08:23:29;;;;;;;4.10;1.55;;;22.10;49.10;;;;;;5196031;28;20056;-80
2021/12/09 08:26:01;;;;;;;;;;;22.10;49.10;;;;;;5196642;28;20154;-81
2021/12/09 08:28:34;;;;;;;5.82;1.50;;;22.00;49.00;;;;;;5187620;28;19929;-80
2021/12/09 08:31:07;;;;;;;3.13;1.38;;;22.10;49.10;;;;;;5204697;28;20053;-81
2021/12/09 08:33:39;;;;;;;3.50;1.25;;;22.10;49.20;;;;;;5188764;28;20049;-81
2021/12/09 08:36:33;;;;;;;3.95;1.42;;;22.10;49.10;;;;;;5183301;28;20045;-81
2021/12/09 08:39:06;;;;;;;5.18;1.45;;;22.10;49.10;;;;;;5196001;28;20421;-81
2021/12/09 08:41:39;;;;;;;6.47;1.63;;;22.10;49.20;;;;;;5210990;28;20045;-81
2021/12/09 08:44:12;;;;;;;5.60;1.30;;;22.10;49.20;;;;;;5212775;28;20437;-81
2021/12/09 08:46:44;;;;;;;3.67;1.30;;;22.10;49.20;;;;;;5197171;28;20072;-81
2021/12/09 08:49:17;;;;;;;5.45;1.15;;;22.10;49.30;;;;;;5213174;28;20398;-81
2021/12/09 08:51:49;;;;;;;5.78;1.45;;;22.10;49.20;;;;;;5207927;28;20049;-81
2021/12/09 08:54:22;;;;;;;5.47;1.55;;;22.10;49.30;;;;;;5211235;28;20044;-81
2021/12/09 08:56:54;;;;;;;4.85;1.30;;;22.10;49.30;;;;;;5211938;28;20219;-80
2021/12/09 08:59:27;;;;;;;4.50;1.48;;;22.10;49.40;;;;;;5214524;28;20052;-81
2021/12/09 09:02:15;;;;;;;5.63;1.60;;;22.10;49.40;;;;;;5213763;28;20048;-81
2021/12/09 09:04:48;;;;;;;4.00;1.40;;;22.10;49.40;;;;;;5212989;28;20048;-81
2021/12/09 09:07:20;;;;;;;5.25;1.33;;;22.10;49.40;;;;;;5213503;28;20284;-81
2021/12/09 09:09:53;;;;;;;5.37;1.53;;;22.10;49.40;;;;;;5208599;28;20045;-81
2021/12/09 09:12:28;;;;;;;5.55;1.50;;;22.10;49.40;;;;;;5182581;28;20391;-81
2021/12/09 09:15:01;;;;;;;9.65;1.75;;;22.10;49.50;;;;;;5178583;28;21004;-80
2021/12/09 09:17:35;;;;;;;6.45;1.75;;;22.10;49.50;;;;;;5185569;28;20056;-81
2021/12/09 09:20:10;;;;;;;4.43;1.58;;;22.10;49.50;;;;;;5202961;28;20154;-81
2021/12/09 09:22:43;;;;;;;4.93;1.05;;;22.10;49.50;;;;;;5211308;28;20048;-81
2021/12/09 09:25:19;;;;;;;3.92;1.50;;;22.20;49.70;;;;;;5211419;28;20041;-80
2021/12/09 09:27:52;;;;;;;4.80;1.42;;;22.20;49.70;;;;;;5191489;28;20060;-80
2021/12/09 09:30:33;;;;;;;3.58;1.33;;;22.20;49.70;;;;;;5195161;28;20056;-80
2021/12/09 09:33:10;;;;;;;5.05;1.33;;;22.20;49.80;;;;;;5197346;28;20209;-81
2021/12/09 09:35:44;;;;;;;7.28;1.40;;;22.20;49.80;;;;;;5206713;28;20053;-80
2021/12/09 09:38:19;;;;;;;8.93;1.33;;;22.20;49.80;;;;;;5172456;28;20041;-81
2021/12/09 09:41:07;;;;;;;5.10;1.52;;;22.20;49.80;;;;;;5174810;28;20457;-80
2021/12/09 09:46:27;;;;;;;13.02;2.08;;;22.20;49.90;;;;;;5203930;28;20044;-80
2021/12/09 09:49:01;;;;;;;9.30;1.33;;;22.20;49.90;;;;;;5203075;28;20060;-79
2021/12/09 09:51:35;;;;;;;6.10;1.48;;;22.20;49.90;;;;;;5206252;28;20041;-79
2021/12/09 09:54:09;;;;;;;4.38;1.65;;;22.20;49.90;;;;;;5210707;28;20529;-79
2021/12/09 09:56:42;;;;;;;2.60;1.30;;;22.20;49.90;;;;;;5207185;28;20044;-79
2021/12/09 09:59:17;;;;;;;6.80;1.50;;;22.20;49.90;;;;;;5195285;28;20406;-80
2021/12/09 10:01:53;;;;;;;4.63;1.65;;;22.20;49.90;;;;;;5187721;28;20059;-80
2021/12/09 10:07:06;;;;;;;3.63;1.50;;;22.20;49.90;;;;;;5201303;28;20049;-80
2021/12/09 10:09:39;;;;;;;3.70;1.40;;;22.20;49.90;;;;;;5185999;28;20053;-80
2021/12/09 10:12:12;;;;;;;9.05;1.80;;;22.20;49.90;;;;;;5204682;28;20048;-80
2021/12/09 10:14:48;;;;;;;7.15;1.50;;;22.20;49.90;;;;;;5202492;28;20489;-80
2021/12/09 10:17:29;;;;;;;4.57;1.40;;;22.20;49.90;;;;;;5175177;28;20473;-80
2021/12/09 10:20:13;;;;;;;5.82;1.52;;;22.20;49.90;;;;;;5194015;28;20394;-80
2021/12/09 10:22:45;;;;;;;3.17;1.30;;;22.20;49.90;;;;;;5206292;28;20493;-79
2021/12/09 10:25:23;;;;;;;6.43;2.05;;;22.20;49.90;;;;;;5201655;28;21539;-79
2021/12/09 10:28:00;;;;;;;6.32;1.67;;;22.20;49.90;;;;;;5192917;28;20058;-78
2021/12/09 10:30:39;;;;;;;5.00;1.42;;;22.20;49.90;;;;;;5190770;28;20502;-78
2021/12/09 10:33:18;;;;;;;6.18;1.33;;;22.20;50.00;;;;;;5192531;28;20284;-78
2021/12/09 10:35:51;;;;;;;3.80;1.67;;;22.20;50.00;;;;;;5188875;28;20053;-78
2021/12/09 10:38:27;;;;;;;3.55;1.73;;;22.20;50.00;;;;;;5191046;28;20057;-78
2021/12/09 10:40:59;;;;;;;3.30;1.15;;;22.20;50.00;;;;;;5173016;28;20053;-78
2021/12/09 10:43:32;;;;;;;7.82;1.65;;;22.20;49.90;;;;;;5196645;28;20048;-77
2021/12/09 10:46:05;;;;;;;4.68;1.30;;;22.20;49.90;;;;;;5200442;28;20358;-78
2021/12/09 10:48:40;;;;;;;5.10;1.20;;;22.20;49.90;;;;;;5183290;28;20044;-78
2021/12/09 10:51:25;;;;;;;5.03;1.58;;;22.20;49.90;;;;;;5199791;28;20486;-78
2021/12/09 10:53:59;;;;;;;3.90;1.30;;;22.20;50.00;;;;;;5195930;28;20048;-77
2021/12/09 10:56:33;;;;;;;8.93;1.73;;;22.20;49.90;;;;;;5162699;28;20052;-78
2021/12/09 10:59:05;;;;;;;;;;;22.20;49.90;;;;;;5199494;28;20041;-78
2021/12/09 11:01:37;;;;;;;4.60;1.77;;;22.20;49.90;;;;;;5203667;28;19999;-77
2021/12/09 11:04:20;;;;;;;3.53;1.55;;;22.20;50.00;;;;;;5202847;28;20041;-77
2021/12/09 11:06:53;;;;;;;4.50;1.45;;;22.20;49.90;;;;;;5183938;28;20041;-78
2021/12/09 11:09:25;;;;;;;2.83;1.25;;;22.20;49.90;;;;;;5199494;28;20048;-79
2021/12/09 11:11:59;;;;;;;3.97;1.30;;;22.20;49.90;;;;;;5199719;28;20049;-78
2021/12/09 11:14:32;;;;;;;;;;;22.20;49.80;;;;;;5203922;28;20482;-78
2021/12/09 11:17:06;;;;;;;2.58;1.52;;;22.20;49.80;;;;;;5207659;28;19929;-79
2021/12/09 11:19:47;;;;;;;4.03;1.40;;;22.20;49.90;;;;;;5203927;28;20474;-78
2021/12/09 11:22:30;;;;;;;2.85;1.55;;;22.20;49.90;;;;;;5195228;28;20048;-79
2021/12/09 11:25:06;;;;;;;3.83;1.25;;;22.20;49.80;;;;;;5199185;28;20060;-79
2021/12/09 11:27:39;;;;;;;3.80;1.63;;;22.20;49.80;;;;;;5190017;28;20056;-79
2021/12/09 11:30:15;;;;;;;4.68;1.48;;;22.20;50.50;;;;;;5199071;28;20041;-78
2021/12/09 11:33:00;;;;;;;3.67;1.40;;;22.20;49.90;;;;;;5198028;28;20041;-79
2021/12/09 11:35:39;;;;;;;2.38;1.35;;;22.20;49.90;;;;;;5175003;28;20060;-78
2021/12/09 11:38:33;;;;;;;6.32;1.42;;;22.20;49.90;;;;;;5196215;28;20056;-78
2021/12/09 11:41:29;;;;;;;6.68;1.65;;;22.20;49.90;;;;;;5200614;28;20056;-79
2021/12/09 11:44:10;;;;;;;3.05;1.30;;;22.20;49.80;;;;;;5198882;28;20485;-79
2021/12/09 11:46:44;;;;;;;;;;;22.20;49.80;;;;;;5182373;28;20048;-79
2021/12/09 11:49:17;;;;;;;3.92;1.45;;;22.10;49.80;;;;;;5203841;28;19932;-79
2021/12/09 11:51:49;;;;;;;5.28;1.60;;;22.20;49.90;;;;;;5173126;28;20060;-79
2021/12/09 11:54:24;;;;;;;6.45;1.10;;;22.10;49.80;;;;;;5214612;28;20044;-79
2021/12/09 11:57:10;;;;;;;2.30;1.10;;;22.20;49.80;;;;;;5204546;28;20056;-80
2021/12/09 12:18:51;;;;;;;5.05;1.63;;;22.10;49.70;;;;;;5204433;28;20055;-80
2021/12/09 12:25:31;;;;;;;4.68;1.98;;;22.10;49.70;;;;;;5206974;28;20057;-80
2021/12/09 12:27:57;;;;;;;5.22;2.15;;;22.20;49.80;;;;;;5203694;28;20044;-80
2021/12/09 12:31:09;;;;;;;3.03;2.17;;;22.10;49.90;;;;;;5198668;28;20044;-80
2021/12/09 12:34:14;;;;;;;2.97;2.20;;;22.20;50.00;;;;;;5197828;28;20052;-80
2021/12/09 12:42:38;;;;;;;3.58;2.30;;;22.20;50.20;;;;;;5200669;28;20231;-80
2021/12/09 12:45:43;;;;;;;5.45;2.22;;;22.20;50.80;;;;;;5196354;28;20418;-80
2021/12/09 12:51:43;;;;;;;4.18;2.55;;;22.20;50.40;;;;;;5192001;28;20422;-80
2021/12/09 12:54:49;;;;;;;5.50;2.40;;;22.20;50.30;;;;;;5202143;28;20418;-80
2021/12/09 12:57:41;;;;;;;4.63;2.60;;;22.20;50.30;;;;;;5195102;28;20391;-80
2021/12/09 13:00:30;;;;;;;5.05;2.70;;;22.20;50.40;;;;;;5195879;28;20051;-79
2021/12/09 13:03:17;;;;;;;5.50;2.42;;;22.20;50.50;;;;;;5200303;28;20718;-79
2021/12/09 13:06:01;;;;;;;4.70;2.38;;;22.20;50.50;;;;;;5198690;28;20051;-79
2021/12/09 13:08:55;;;;;;;3.47;2.83;;;22.20;50.50;;;;;;5195014;28;20052;-80
2021/12/09 13:11:49;;;;;;;4.50;2.60;;;22.20;50.50;;;;;;5192595;28;20049;-80
2021/12/09 13:14:26;;;;;;;4.95;2.30;;;22.20;50.50;;;;;;5199933;28;20783;-80
2021/12/09 13:20:05;;;;;;;3.67;2.40;;;22.20;50.50;;;;;;5192390;28;21016;-80
2021/12/09 13:22:40;;;;;;;4.60;2.53;;;22.20;50.50;;;;;;5192635;28;20048;-80
2021/12/09 13:25:25;;;;;;;5.65;2.80;;;22.20;50.50;;;;;;5194362;28;20041;-80
2021/12/09 13:28:02;;;;;;;2.53;2.05;;;22.20;50.50;;;;;;5197773;28;20056;-80
2021/12/09 13:56:08;;;;;;;2.97;2.03;;;22.20;50.00;;;;;;5199204;28;20052;-79
2021/12/09 13:58:49;;;;;;;3.28;2.10;;;22.20;49.90;;;;;;5183130;28;20485;-80
2021/12/09 14:01:21;;;;;;;4.75;1.90;;;22.20;50.00;;;;;;5185128;28;20061;-80
2021/12/09 14:03:54;;;;;;;2.90;2.10;;;22.20;49.90;;;;;;5203947;28;20033;-80
2021/12/09 14:06:26;;;;;;;3.53;2.10;;;22.20;49.90;;;;;;5202364;28;20479;-80
2021/12/09 14:08:59;;;;;;;3.38;2.13;;;22.20;49.90;;;;;;5203437;28;20041;-80
2021/12/09 14:11:35;;;;;;;4.90;2.00;;;22.20;49.90;;;;;;5205184;28;20430;-82
2021/12/09 14:14:13;;;;;;;2.95;1.70;;;22.20;49.90;;;;;;5198989;28;20053;-81
2021/12/09 14:21:58;;;;;;;2.70;2.20;;;22.20;49.90;;;;;;5199681;28;20124;-80
2021/12/09 14:24:35;;;;;;;5.28;2.60;;;22.20;49.90;;;;;;5204453;28;20475;-81
2021/12/09 14:27:16;;;;;;;3.63;2.10;;;22.20;49.90;;;;;;5208072;28;20053;-81
2021/12/09 14:29:53;;;;;;;3.17;2.03;;;22.20;49.90;;;;;;5190101;28;20045;-81
2021/12/09 14:32:28;;;;;;;3.72;2.40;;;22.20;50.00;;;;;;5183439;28;20516;-80
2021/12/09 14:35:05;;;;;;;2.38;1.85;;;22.20;50.00;;;;;;5171188;28;20891;-81
2021/12/09 14:37:48;;;;;;;2.85;1.83;;;22.20;50.00;;;;;;5195872;28;20061;-83
2021/12/09 14:40:26;;;;;;;3.13;2.10;;;22.20;50.00;;;;;;5190766;28;20080;-80
2021/12/09 14:43:05;;;;;;;2.97;2.00;;;22.20;50.30;;;;;;5202971;28;20041;-81
2021/12/09 14:45:58;;;;;;;3.65;1.90;;;22.20;50.00;;;;;;5201885;28;20052;-82
2021/12/09 14:48:30;;;;;;;8.05;1.95;;;22.20;50.00;;;;;;5195225;28;20048;-82